Time;durP1;ratioP1;P1;durP2;ratioP2;P2;SDS_P1;SDS_P2;PMS_P1;PMS_P2;Temp;Humidity;BMP_temperature;BMP_pressure;BME280_temperature;BME280_humidity;BME280_pressure;Samples;Min_cycle;Max_cycle;Signal;HPM_P1;HPM_P2
2022/09/05 00:01:07;;;;;;;10.10;8.30;;;;;;;;;;4870203;29;20315;-41
2022/09/05 00:03:56;;;;;;;10.67;9.37;;;;;;;;;;4874901;28;20214;-42
2022/09/05 00:06:24;;;;;;;10.07;9.07;;;;;;;;;;4872031;29;20368;-41
2022/09/05 00:09:05;;;;;;;8.73;7.93;;;;;;;;;;4882329;29;20278;-42
2022/09/05 00:11:36;;;;;;;9.87;8.73;;;;;;;;;;4879831;29;21068;-41
2022/09/05 00:14:15;;;;;;;11.77;9.60;;;;;;;;;;4878160;29;20187;-42
2022/09/05 00:16:55;;;;;;;9.27;8.43;;;;;;;;;;4881102;29;20399;-42
2022/09/05 00:19:24;;;;;;;8.97;8.07;;;;;;;;;;4883490;29;20403;-42
2022/09/05 00:21:56;;;;;;;8.83;7.90;;;;;;;;;;4876786;29;20263;-42
2022/09/05 00:24:41;;;;;;;11.27;8.77;;;;;;;;;;4878858;29;20755;-42
2022/09/05 00:27:15;;;;;;;12.70;8.47;;;;;;;;;;4878659;28;20279;-40
2022/09/05 00:29:57;;;;;;;10.23;8.70;;;;;;;;;;4882613;29;20183;-42
2022/09/05 00:32:41;;;;;;;14.27;9.40;;;;;;;;;;4880255;29;20301;-41
2022/09/05 00:35:07;;;;;;;10.03;8.67;;;;;;;;;;4880381;29;20180;-42
2022/09/05 00:37:33;;;;;;;17.00;11.43;;;;;;;;;;4868360;29;20354;-42
2022/09/05 00:40:29;;;;;;;10.13;9.00;;;;;;;;;;4876712;29;20314;-42
2022/09/05 00:42:58;;;;;;;11.30;10.20;;;;;;;;;;4880658;28;20675;-42
2022/09/05 00:45:30;;;;;;;12.73;10.10;;;;;;;;;;4877430;29;20203;-42
2022/09/05 00:48:16;;;;;;;10.67;9.50;;;;;;;;;;4876959;29;20271;-40
2022/09/05 00:50:42;;;;;;;11.70;10.17;;;;;;;;;;4875436;29;20642;-42
2022/09/05 00:53:13;;;;;;;11.47;10.20;;;;;;;;;;4883487;29;20207;-42
2022/09/05 00:55:54;;;;;;;12.17;10.73;;;;;;;;;;4881582;29;20532;-42
2022/09/05 00:58:27;;;;;;;12.70;11.27;;;;;;;;;;4878124;29;21858;-41
2022/09/05 01:00:54;;;;;;;11.83;10.00;;;;;;;;;;4879452;28;20539;-42
2022/09/05 01:03:23;;;;;;;11.93;10.50;;;;;;;;;;4879661;28;20751;-42
2022/09/05 01:05:59;;;;;;;13.13;11.73;;;;;;;;;;4880549;28;20177;-43
2022/09/05 01:08:44;;;;;;;14.00;10.47;;;;;;;;;;4873966;29;20175;-42
2022/09/05 01:11:17;;;;;;;10.33;9.33;;;;;;;;;;4877614;28;20188;-42
2022/09/05 01:14:02;;;;;;;13.60;11.67;;;;;;;;;;4884898;29;20199;-42
2022/09/05 01:16:28;;;;;;;15.33;12.43;;;;;;;;;;4876694;29;20960;-42
2022/09/05 01:19:12;;;;;;;13.53;12.30;;;;;;;;;;4878134;29;20470;-42
2022/09/05 01:22:04;;;;;;;17.90;13.73;;;;;;;;;;4877841;28;20814;-42
2022/09/05 01:24:46;;;;;;;13.77;12.13;;;;;;;;;;4883079;28;20701;-43
2022/09/05 01:27:31;;;;;;;12.80;11.43;;;;;;;;;;4876981;29;20712;-42
2022/09/05 01:30:16;;;;;;;13.70;11.03;;;;;;;;;;4878613;28;20192;-40
2022/09/05 01:33:00;;;;;;;11.20;8.53;;;;;;;;;;4877834;29;20183;-42
2022/09/05 01:35:45;;;;;;;9.73;8.20;;;;;;;;;;4881411;29;20188;-41
2022/09/05 01:38:23;;;;;;;10.20;8.83;;;;;;;;;;4878225;29;20968;-40
2022/09/05 01:41:03;;;;;;;9.07;7.30;;;;;;;;;;4879588;29;21842;-40
2022/09/05 01:43:29;;;;;;;8.43;7.00;;;;;;;;;;4879569;29;20511;-42
2022/09/05 01:46:14;;;;;;;7.23;6.63;;;;;;;;;;4877552;29;20192;-42
2022/09/05 01:48:46;;;;;;;9.37;7.00;;;;;;;;;;4874987;28;20618;-42
2022/09/05 01:51:12;;;;;;;9.33;7.07;;;;;;;;;;4875264;29;20821;-42
2022/09/05 01:53:42;;;;;;;7.50;6.53;;;;;;;;;;4876527;29;20404;-42
2022/09/05 01:56:28;;;;;;;8.07;7.27;;;;;;;;;;4876097;29;20744;-42
2022/09/05 01:58:54;;;;;;;6.33;5.83;;;;;;;;;;4873860;29;20311;-42
2022/09/05 02:01:20;;;;;;;7.50;5.83;;;;;;;;;;4877459;28;20906;-41
2022/09/05 02:03:50;;;;;;;9.87;6.50;;;;;;;;;;4880979;29;20188;-41
2022/09/05 02:06:22;;;;;;;8.47;7.03;;;;;;;;;;4881000;29;20254;-41
2022/09/05 02:09:01;;;;;;;8.03;6.73;;;;;;;;;;4883334;29;20195;-42
2022/09/05 02:11:38;;;;;;;8.03;6.47;;;;;;;;;;4888884;29;20224;-41
2022/09/05 02:14:34;;;;;;;7.03;6.13;;;;;;;;;;4886663;29;20260;-42
2022/09/05 02:17:19;;;;;;;6.87;6.20;;;;;;;;;;4887006;28;20681;-42
2022/09/05 02:19:49;;;;;;;6.97;6.23;;;;;;;;;;4886463;29;20988;-41
2022/09/05 02:22:21;;;;;;;7.73;6.60;;;;;;;;;;4885507;29;20595;-41
2022/09/05 02:24:56;;;;;;;10.03;6.50;;;;;;;;;;4881391;28;20195;-42
2022/09/05 02:27:22;;;;;;;6.60;5.73;;;;;;;;;;4880375;29;20184;-42
2022/09/05 02:29:52;;;;;;;8.00;6.43;;;;;;;;;;4887921;29;20610;-42
2022/09/05 02:32:22;;;;;;;8.30;6.33;;;;;;;;;;4889891;29;20436;-42
2022/09/05 02:34:54;;;;;;;8.20;6.50;;;;;;;;;;4885864;29;20193;-42
2022/09/05 02:37:20;;;;;;;7.37;6.60;;;;;;;;;;4878248;29;20563;-42
2022/09/05 02:39:50;;;;;;;7.13;6.43;;;;;;;;;;4883737;28;20212;-42
2022/09/05 02:42:22;;;;;;;8.50;7.60;;;;;;;;;;4882168;29;20882;-42
2022/09/05 02:44:55;;;;;;;9.43;7.63;;;;;;;;;;4877287;29;20311;-42
2022/09/05 02:47:25;;;;;;;9.80;7.97;;;;;;;;;;4873333;29;20715;-41
2022/09/05 02:50:20;;;;;;;9.47;7.47;;;;;;;;;;4881941;28;20215;-42
2022/09/05 02:52:48;;;;;;;9.33;8.37;;;;;;;;;;4879799;28;20307;-42
2022/09/05 02:55:32;;;;;;;10.90;9.30;;;;;;;;;;4880279;29;20505;-42
2022/09/05 02:58:17;;;;;;;10.83;9.73;;;;;;;;;;4872184;29;20187;-41
2022/09/05 03:01:08;;;;;;;10.33;9.27;;;;;;;;;;4876392;29;20208;-41
2022/09/05 03:03:40;;;;;;;10.77;9.67;;;;;;;;;;4882939;28;21024;-42
2022/09/05 03:06:12;;;;;;;10.63;9.63;;;;;;;;;;4877338;29;20180;-41
2022/09/05 03:09:14;;;;;;;12.53;9.43;;;;;;;;;;4878152;29;20895;-42
2022/09/05 03:11:59;;;;;;;14.93;9.50;;;;;;;;;;4916253;28;20604;-41
2022/09/05 03:14:31;;;;;;;9.13;7.90;;;;;;;;;;4889480;28;20580;-43
2022/09/05 03:17:09;;;;;;;9.17;8.27;;;;;;;;;;4883890;29;20184;-43
2022/09/05 03:19:55;;;;;;;11.80;8.40;;;;;;;;;;4881725;29;20215;-43
2022/09/05 03:22:27;;;;;;;8.13;7.33;;;;;;;;;;4884835;29;20349;-42
2022/09/05 03:25:11;;;;;;;10.93;9.40;;;;;;;;;;4884056;29;20602;-42
2022/09/05 03:28:02;;;;;;;10.17;9.00;;;;;;;;;;4875155;29;20184;-43
2022/09/05 03:30:46;;;;;;;9.47;8.50;;;;;;;;;;4874715;29;20573;-43
2022/09/05 03:33:15;;;;;;;13.00;9.70;;;;;;;;;;4876733;29;20191;-43
2022/09/05 03:35:48;;;;;;;13.83;10.17;;;;;;;;;;4877361;29;20183;-43
2022/09/05 03:38:14;;;;;;;9.90;8.90;;;;;;;;;;4873226;29;20212;-43
2022/09/05 03:40:52;;;;;;;12.33;10.07;;;;;;;;;;4873473;29;20764;-43
2022/09/05 03:43:30;;;;;;;11.50;9.97;;;;;;;;;;4874809;29;20188;-43
2022/09/05 03:46:06;;;;;;;13.20;10.37;;;;;;;;;;4872539;29;20207;-43
2022/09/05 03:48:51;;;;;;;10.33;9.37;;;;;;;;;;4869265;29;21063;-43
2022/09/05 03:51:20;;;;;;;10.73;9.33;;;;;;;;;;4873821;28;21742;-42
2022/09/05 03:54:04;;;;;;;13.40;11.00;;;;;;;;;;4871650;29;21145;-43
2022/09/05 03:56:49;;;;;;;12.07;10.87;;;;;;;;;;4869388;29;20847;-43
2022/09/05 03:59:27;;;;;;;15.60;10.63;;;;;;;;;;4869344;29;20425;-41
2022/09/05 04:02:01;;;;;;;22.77;13.13;;;;;;;;;;4874381;29;20657;-43
2022/09/05 04:04:27;;;;;;;25.17;15.57;;;;;;;;;;4872717;29;20741;-42
2022/09/05 04:06:59;;;;;;;30.33;15.97;;;;;;;;;;4876164;29;20516;-42
2022/09/05 04:09:47;;;;;;;22.77;14.40;;;;;;;;;;4877639;28;20185;-43
2022/09/05 04:12:26;;;;;;;20.10;14.77;;;;;;;;;;4882131;29;20558;-43
2022/09/05 04:14:55;;;;;;;23.50;15.10;;;;;;;;;;4880753;29;21200;-43
2022/09/05 04:17:37;;;;;;;28.20;16.27;;;;;;;;;;4880884;29;20179;-43
2022/09/05 04:20:17;;;;;;;36.03;16.63;;;;;;;;;;4874495;29;20738;-43
2022/09/05 04:22:59;;;;;;;21.50;14.87;;;;;;;;;;4880653;29;20194;-43
2022/09/05 04:25:41;;;;;;;16.90;14.50;;;;;;;;;;4877072;29;20415;-43
2022/09/05 04:28:19;;;;;;;20.17;16.03;;;;;;;;;;4879680;29;20399;-44
2022/09/05 04:30:48;;;;;;;17.23;15.00;;;;;;;;;;4885517;28;20652;-43
2022/09/05 04:33:19;;;;;;;24.30;19.80;;;;;;;;;;4878241;28;21249;-42
2022/09/05 04:35:52;;;;;;;22.00;17.50;;;;;;;;;;4879260;29;20279;-41
2022/09/05 04:38:35;;;;;;;21.07;16.83;;;;;;;;;;4878813;29;21093;-41
2022/09/05 04:41:09;;;;;;;18.20;15.00;;;;;;;;;;4879871;29;20199;-42
2022/09/05 04:43:39;;;;;;;18.87;15.77;;;;;;;;;;4881029;29;20187;-43
2022/09/05 04:46:22;;;;;;;17.17;15.37;;;;;;;;;;4878782;29;20718;-42
2022/09/05 04:48:57;;;;;;;16.10;14.50;;;;;;;;;;4882188;29;20243;-42
2022/09/05 04:51:33;;;;;;;18.43;16.40;;;;;;;;;;4882929;29;20283;-41
2022/09/05 04:53:59;;;;;;;15.70;14.07;;;;;;;;;;4884312;28;20184;-41
2022/09/05 04:56:32;;;;;;;18.67;15.90;;;;;;;;;;4881757;29;20196;-42
2022/09/05 04:59:02;;;;;;;16.87;15.07;;;;;;;;;;4879994;29;20372;-41
2022/09/05 05:01:41;;;;;;;19.83;15.20;;;;;;;;;;4888124;29;20646;-41
2022/09/05 05:04:09;;;;;;;17.00;15.20;;;;;;;;;;4884402;29;20188;-42
2022/09/05 05:06:39;;;;;;;16.23;14.40;;;;;;;;;;4885815;29;20184;-43
2022/09/05 05:09:16;;;;;;;16.13;13.57;;;;;;;;;;4884632;29;20701;-43
2022/09/05 05:12:01;;;;;;;17.80;14.73;;;;;;;;;;4880426;29;20192;-43
2022/09/05 05:14:49;;;;;;;18.83;15.20;;;;;;;;;;4887861;29;20188;-42
2022/09/05 05:17:15;;;;;;;18.70;16.03;;;;;;;;;;4882534;29;20467;-43
2022/09/05 05:19:44;;;;;;;16.93;15.17;;;;;;;;;;4880125;29;20232;-43
2022/09/05 05:22:14;;;;;;;17.57;15.47;;;;;;;;;;4878614;28;20207;-43
2022/09/05 05:24:54;;;;;;;17.90;14.07;;;;;;;;;;4885052;29;20345;-43
2022/09/05 05:27:27;;;;;;;19.10;14.63;;;;;;;;;;4886629;29;20953;-42
2022/09/05 05:30:07;;;;;;;16.97;15.03;;;;;;;;;;4890150;29;20291;-43
2022/09/05 05:32:35;;;;;;;16.63;14.47;;;;;;;;;;4878975;29;20983;-43
2022/09/05 05:35:08;;;;;;;16.73;15.03;;;;;;;;;;4876751;29;20992;-43
2022/09/05 05:37:37;;;;;;;17.23;15.37;;;;;;;;;;4883150;28;20935;-42
2022/09/05 05:40:07;;;;;;;15.70;14.10;;;;;;;;;;4888084;29;20232;-42
2022/09/05 05:42:34;;;;;;;16.17;14.03;;;;;;;;;;4886606;28;20742;-43
2022/09/05 05:45:01;;;;;;;20.47;15.07;;;;;;;;;;4887863;29;20267;-42
2022/09/05 05:47:31;;;;;;;17.43;14.73;;;;;;;;;;4889865;29;20196;-43
2022/09/05 05:50:17;;;;;;;17.60;14.60;;;;;;;;;;4888461;29;20192;-43
2022/09/05 05:52:43;;;;;;;15.93;13.07;;;;;;;;;;4886072;29;20255;-43
2022/09/05 05:55:12;;;;;;;16.80;13.47;;;;;;;;;;4887654;29;20635;-43
2022/09/05 05:57:51;;;;;;;15.20;12.73;;;;;;;;;;4890174;29;20196;-43
2022/09/05 06:00:18;;;;;;;14.27;12.03;;;;;;;;;;4894670;29;20539;-43
2022/09/05 06:03:03;;;;;;;14.77;10.60;;;;;;;;;;4896326;29;20184;-43
2022/09/05 06:05:35;;;;;;;13.70;9.60;;;;;;;;;;4882625;29;20758;-43
2022/09/05 06:08:01;;;;;;;9.93;8.63;;;;;;;;;;4886466;28;20586;-43
2022/09/05 06:10:46;;;;;;;9.93;7.90;;;;;;;;;;4883791;29;20683;-44
2022/09/05 06:13:30;;;;;;;9.53;7.60;;;;;;;;;;4887973;29;20196;-43
2022/09/05 06:16:15;;;;;;;9.80;7.87;;;;;;;;;;4888339;29;20221;-43
2022/09/05 06:18:56;;;;;;;11.63;8.53;;;;;;;;;;4891121;29;20550;-43
2022/09/05 06:21:40;;;;;;;12.10;10.07;;;;;;;;;;4893172;29;20648;-43
2022/09/05 06:24:23;;;;;;;11.47;9.33;;;;;;;;;;4890649;29;20240;-42
2022/09/05 06:27:09;;;;;;;14.63;12.53;;;;;;;;;;4889785;29;20288;-43
2022/09/05 06:30:04;;;;;;;13.90;11.50;;;;;;;;;;4893688;29;20412;-43
2022/09/05 06:32:40;;;;;;;13.83;12.43;;;;;;;;;;4900083;28;20582;-42
2022/09/05 06:35:15;;;;;;;15.80;13.33;;;;;;;;;;4898988;28;20437;-43
2022/09/05 06:37:41;;;;;;;18.10;14.67;;;;;;;;;;4895162;29;20184;-43
2022/09/05 06:40:19;;;;;;;26.47;17.70;;;;;;;;;;4893987;29;20208;-42
2022/09/05 06:43:04;;;;;;;23.00;17.03;;;;;;;;;;4891927;29;20183;-42
2022/09/05 06:45:49;;;;;;;17.33;15.13;;;;;;;;;;4891292;29;20566;-43
2022/09/05 06:48:23;;;;;;;14.27;12.87;;;;;;;;;;4889215;29;20184;-43
2022/09/05 06:51:04;;;;;;;17.07;12.00;;;;;;;;;;4887868;29;21063;-43
2022/09/05 06:53:33;;;;;;;14.70;12.47;;;;;;;;;;4887950;29;20184;-43
2022/09/05 06:56:04;;;;;;;13.83;12.37;;;;;;;;;;4890760;28;20216;-44
2022/09/05 06:58:49;;;;;;;15.50;13.93;;;;;;;;;;4888815;29;20216;-44
2022/09/05 07:01:21;;;;;;;21.23;14.17;;;;;;;;;;4913080;28;20219;-43
2022/09/05 07:04:08;;;;;;;18.93;15.07;;;;;;;;;;4898392;29;20176;-43
2022/09/05 07:06:45;;;;;;;17.83;12.73;;;;;;;;;;4893540;29;20899;-44
2022/09/05 07:09:24;;;;;;;21.77;14.57;;;;;;;;;;4893875;29;20494;-43
2022/09/05 07:12:07;;;;;;;17.77;14.70;;;;;;;;;;4891238;29;20195;-43
2022/09/05 07:14:56;;;;;;;18.37;15.00;;;;;;;;;;4890133;29;20180;-44
2022/09/05 07:17:30;;;;;;;16.30;14.03;;;;;;;;;;4889529;29;21225;-43
2022/09/05 07:19:59;;;;;;;20.40;15.00;;;;;;;;;;4888874;29;20207;-43
2022/09/05 07:22:31;;;;;;;16.63;11.77;;;;;;;;;;4890092;29;20188;-43
2022/09/05 07:24:58;;;;;;;17.87;15.33;;;;;;;;;;4889811;29;20286;-43
2022/09/05 07:27:35;;;;;;;17.80;14.10;;;;;;;;;;4889348;28;20613;-41
2022/09/05 07:30:01;;;;;;;13.33;12.03;;;;;;;;;;4892814;29;20576;-43
2022/09/05 07:32:32;;;;;;;12.53;11.27;;;;;;;;;;4891115;29;20830;-44
2022/09/05 07:35:01;;;;;;;13.43;11.53;;;;;;;;;;4889461;29;20234;-43
2022/09/05 07:37:34;;;;;;;15.63;13.90;;;;;;;;;;4896255;29;20859;-42
2022/09/05 07:40:08;;;;;;;15.17;12.40;;;;;;;;;;4888294;28;20212;-43
2022/09/05 07:42:37;;;;;;;18.67;12.63;;;;;;;;;;4893806;29;20180;-44
2022/09/05 07:45:09;;;;;;;14.97;11.83;;;;;;;;;;4890273;29;20290;-42
2022/09/05 07:47:39;;;;;;;13.07;10.30;;;;;;;;;;4887546;28;20968;-43
2022/09/05 07:50:11;;;;;;;11.17;9.63;;;;;;;;;;4887950;29;20593;-43
2022/09/05 07:52:39;;;;;;;11.83;9.13;;;;;;;;;;4888793;29;20180;-44
2022/09/05 07:55:25;;;;;;;10.33;9.20;;;;;;;;;;4890332;29;20323;-43
2022/09/05 07:57:53;;;;;;;9.77;8.33;;;;;;;;;;4888968;29;20279;-44
2022/09/05 08:00:22;;;;;;;9.97;8.73;;;;;;;;;;4887755;29;20728;-44
2022/09/05 08:02:48;;;;;;;9.70;7.60;;;;;;;;;;4891220;29;20184;-44
2022/09/05 08:05:15;;;;;;;10.60;6.83;;;;;;;;;;4888768;29;20208;-44
2022/09/05 08:07:44;;;;;;;9.90;7.13;;;;;;;;;;4888928;29;20850;-44
2022/09/05 08:10:22;;;;;;;7.77;6.37;;;;;;;;;;4886510;29;20196;-44
2022/09/05 08:12:53;;;;;;;9.33;6.93;;;;;;;;;;4888358;29;20647;-44
2022/09/05 08:15:38;;;;;;;10.43;6.90;;;;;;;;;;4890149;29;20188;-43
2022/09/05 08:18:11;;;;;;;8.20;6.60;;;;;;;;;;4889776;29;20427;-44
2022/09/05 08:21:00;;;;;;;7.13;5.90;;;;;;;;;;4895065;29;20663;-43
2022/09/05 08:23:26;;;;;;;10.13;6.67;;;;;;;;;;4903474;28;21754;-44
2022/09/05 08:25:58;;;;;;;11.47;8.10;;;;;;;;;;4899252;29;20206;-44
2022/09/05 08:28:27;;;;;;;13.97;6.93;;;;;;;;;;4898058;28;20747;-44
2022/09/05 08:31:02;;;;;;;10.67;7.10;;;;;;;;;;4896881;29;20197;-44
2022/09/05 08:33:32;;;;;;;9.47;7.60;;;;;;;;;;4895236;29;20368;-44
2022/09/05 08:36:01;;;;;;;11.63;7.30;;;;;;;;;;4897309;29;20591;-44
2022/09/05 08:38:29;;;;;;;11.63;6.87;;;;;;;;;;4895338;29;20172;-44
2022/09/05 08:41:01;;;;;;;11.13;6.87;;;;;;;;;;4896153;29;20199;-43
2022/09/05 08:43:36;;;;;;;7.97;6.77;;;;;;;;;;4907586;28;20208;-43
2022/09/05 08:46:07;;;;;;;7.10;5.53;;;;;;;;;;4898332;29;20526;-43
2022/09/05 08:48:52;;;;;;;8.10;4.77;;;;;;;;;;4898791;29;20184;-43
2022/09/05 08:51:47;;;;;;;7.67;4.90;;;;;;;;;;4897032;29;20299;-43
2022/09/05 08:54:16;;;;;;;5.70;4.67;;;;;;;;;;4922752;28;20467;-44
2022/09/05 08:56:45;;;;;;;7.77;5.17;;;;;;;;;;4894573;29;20727;-44
2022/09/05 08:59:14;;;;;;;7.60;4.33;;;;;;;;;;4897460;29;20282;-43
2022/09/05 09:01:43;;;;;;;5.57;4.50;;;;;;;;;;4901713;29;20176;-43
2022/09/05 09:04:18;;;;;;;9.27;5.37;;;;;;;;;;4901096;29;20869;-43
2022/09/05 09:06:44;;;;;;;9.00;4.57;;;;;;;;;;4898817;28;20921;-44
2022/09/05 09:09:31;;;;;;;5.43;4.87;;;;;;;;;;4899638;29;20396;-44
2022/09/05 09:12:03;;;;;;;8.77;4.87;;;;;;;;;;4900584;29;20622;-44
2022/09/05 09:14:32;;;;;;;9.47;5.57;;;;;;;;;;4902163;29;21028;-42
2022/09/05 09:17:13;;;;;;;7.23;5.37;;;;;;;;;;4899810;29;20800;-43
2022/09/05 09:19:39;;;;;;;6.13;5.37;;;;;;;;;;4899413;29;20204;-43
2022/09/05 09:22:17;;;;;;;7.57;5.30;;;;;;;;;;4901898;29;20192;-44
2022/09/05 09:24:43;;;;;;;7.43;4.67;;;;;;;;;;4900542;29;20770;-44
2022/09/05 09:27:19;;;;;;;5.30;4.20;;;;;;;;;;4902388;29;20865;-43
2022/09/05 09:29:46;;;;;;;5.53;4.43;;;;;;;;;;4899192;28;20741;-44
2022/09/05 09:32:18;;;;;;;12.33;4.63;;;;;;;;;;4900626;29;20215;-43
2022/09/05 09:34:53;;;;;;;4.60;4.00;;;;;;;;;;4902137;29;20382;-44
2022/09/05 09:37:19;;;;;;;9.33;4.50;;;;;;;;;;4902740;29;20432;-43
2022/09/05 09:39:54;;;;;;;5.40;4.60;;;;;;;;;;4899480;29;20748;-44
2022/09/05 09:42:44;;;;;;;6.87;4.23;;;;;;;;;;4896277;29;20301;-44
2022/09/05 09:45:29;;;;;;;7.07;3.83;;;;;;;;;;4897676;29;20196;-41
2022/09/05 09:48:11;;;;;;;4.10;3.70;;;;;;;;;;4901836;29;20302;-41
2022/09/05 09:51:03;;;;;;;4.93;4.17;;;;;;;;;;4899261;29;20543;-41
2022/09/05 09:53:29;;;;;;;4.47;3.70;;;;;;;;;;4898240;29;20641;-42
2022/09/05 09:56:13;;;;;;;5.13;3.23;;;;;;;;;;4901177;29;20327;-42
2022/09/05 09:58:42;;;;;;;4.53;3.27;;;;;;;;;;4899682;29;20184;-42
2022/09/05 10:01:27;;;;;;;5.53;3.37;;;;;;;;;;4898404;29;20898;-41
2022/09/05 10:04:12;;;;;;;7.53;3.03;;;;;;;;;;4898666;29;20203;-42
2022/09/05 10:06:44;;;;;;;4.17;3.40;;;;;;;;;;4902520;29;20183;-42
2022/09/05 10:09:24;;;;;;;4.53;3.57;;;;;;;;;;4897399;29;20647;-41
2022/09/05 10:12:08;;;;;;;7.87;3.40;;;;;;;;;;4898482;29;20187;-41
2022/09/05 10:14:53;;;;;;;4.33;3.20;;;;;;;;;;4900110;28;20820;-41
2022/09/05 10:17:26;;;;;;;3.57;2.90;;;;;;;;;;4898366;29;20188;-41
2022/09/05 10:20:02;;;;;;;5.73;3.20;;;;;;;;;;4894505;29;20724;-42
2022/09/05 10:22:44;;;;;;;3.50;2.83;;;;;;;;;;4898238;29;20509;-42
2022/09/05 10:25:10;;;;;;;5.60;3.50;;;;;;;;;;4897755;29;20490;-42
2022/09/05 10:27:48;;;;;;;3.93;2.90;;;;;;;;;;4901343;29;20803;-41
2022/09/05 10:30:22;;;;;;;3.67;2.53;;;;;;;;;;4899099;29;20708;-42
2022/09/05 10:33:08;;;;;;;3.50;3.10;;;;;;;;;;4898739;29;21012;-42
2022/09/05 10:35:36;;;;;;;5.60;3.00;;;;;;;;;;4918522;28;20200;-42
2022/09/05 10:38:05;;;;;;;4.87;3.03;;;;;;;;;;4900588;29;20451;-42
2022/09/05 10:40:33;;;;;;;6.23;2.80;;;;;;;;;;4894872;29;20302;-42
2022/09/05 10:43:08;;;;;;;4.30;2.90;;;;;;;;;;4896526;29;20282;-42
2022/09/05 10:45:53;;;;;;;5.97;3.03;;;;;;;;;;4897547;29;20602;-42
2022/09/05 10:48:19;;;;;;;5.87;3.30;;;;;;;;;;4899744;29;20172;-42
2022/09/05 10:50:51;;;;;;;9.00;3.00;;;;;;;;;;4894705;29;20187;-42
2022/09/05 10:53:46;;;;;;;4.47;2.90;;;;;;;;;;4896512;29;20180;-42
2022/09/05 10:56:15;;;;;;;4.13;2.50;;;;;;;;;;4931068;28;20748;-42
2022/09/05 10:58:44;;;;;;;4.90;2.70;;;;;;;;;;4898014;28;20956;-42
2022/09/05 11:01:10;;;;;;;5.17;2.50;;;;;;;;;;4893288;29;20196;-43
2022/09/05 11:03:53;;;;;;;3.43;2.10;;;;;;;;;;4898521;29;20176;-43
2022/09/05 11:06:23;;;;;;;2.80;2.40;;;;;;;;;;4900740;29;20514;-41
2022/09/05 11:09:03;;;;;;;4.50;2.63;;;;;;;;;;4896737;29;20656;-42
2022/09/05 11:11:36;;;;;;;4.73;2.10;;;;;;;;;;4893616;29;20615;-43
2022/09/05 11:14:14;;;;;;;3.63;2.20;;;;;;;;;;4896091;29;20426;-43
2022/09/05 11:16:48;;;;;;;3.53;2.33;;;;;;;;;;4896489;29;20546;-42
2022/09/05 11:19:32;;;;;;;6.07;2.90;;;;;;;;;;4928258;28;20823;-43
2022/09/05 11:22:03;;;;;;;3.10;2.13;;;;;;;;;;4894737;29;20184;-43
2022/09/05 11:24:32;;;;;;;4.17;2.27;;;;;;;;;;4898497;28;20648;-43
2022/09/05 11:27:16;;;;;;;5.17;2.00;;;;;;;;;;4897848;29;20541;-42
2022/09/05 11:29:44;;;;;;;3.40;2.07;;;;;;;;;;4895938;29;20387;-42
2022/09/05 11:32:19;;;;;;;5.10;2.40;;;;;;;;;;4896050;29;20180;-43
2022/09/05 11:35:18;;;;;;;6.40;2.27;;;;;;;;;;4897661;29;20175;-43
2022/09/05 11:37:44;;;;;;;4.43;2.10;;;;;;;;;;4918907;28;20814;-43
2022/09/05 11:40:23;;;;;;;3.20;1.80;;;;;;;;;;4897396;28;20713;-43
2022/09/05 11:43:18;;;;;;;3.90;1.90;;;;;;;;;;4898422;29;20873;-43
2022/09/05 11:45:50;;;;;;;4.10;2.07;;;;;;;;;;4927873;28;20403;-43
2022/09/05 11:48:19;;;;;;;3.23;1.90;;;;;;;;;;4895716;29;20697;-43
2022/09/05 11:50:45;;;;;;;3.23;2.30;;;;;;;;;;4894851;28;20705;-42
2022/09/05 11:53:30;;;;;;;4.50;2.20;;;;;;;;;;4895800;29;20423;-43
2022/09/05 11:56:15;;;;;;;2.67;2.17;;;;;;;;;;4896498;29;20751;-43
2022/09/05 11:59:00;;;;;;;4.07;2.40;;;;;;;;;;4899331;29;21030;-43
2022/09/05 12:01:32;;;;;;;5.83;2.20;;;;;;;;;;4890208;29;20816;-42
2022/09/05 12:04:16;;;;;;;3.37;2.13;;;;;;;;;;4889012;29;20446;-43
2022/09/05 12:07:01;;;;;;;3.20;2.50;;;;;;;;;;4889491;29;20223;-42
2022/09/05 12:09:32;;;;;;;5.57;2.33;;;;;;;;;;4890107;29;20168;-43
2022/09/05 12:12:15;;;;;;;7.20;2.40;;;;;;;;;;4892333;29;20585;-42
2022/09/05 12:15:00;;;;;;;2.43;1.90;;;;;;;;;;4894318;29;20183;-43
2022/09/05 12:17:26;;;;;;;4.00;2.23;;;;;;;;;;4897184;29;20179;-43
2022/09/05 12:20:14;;;;;;;2.80;2.43;;;;;;;;;;4894906;29;20456;-43
2022/09/05 12:22:56;;;;;;;2.30;1.97;;;;;;;;;;4894618;29;20179;-43
2022/09/05 12:25:25;;;;;;;4.90;2.30;;;;;;;;;;4886938;29;20215;-42
2022/09/05 12:27:58;;;;;;;4.10;2.10;;;;;;;;;;4897539;29;20232;-43
2022/09/05 12:30:29;;;;;;;4.57;2.37;;;;;;;;;;4897572;29;20211;-43
2022/09/05 12:33:09;;;;;;;2.57;2.20;;;;;;;;;;4896733;29;20467;-42
2022/09/05 12:35:48;;;;;;;5.70;2.33;;;;;;;;;;4897344;29;20263;-43
2022/09/05 12:38:14;;;;;;;4.30;2.20;;;;;;;;;;4902414;29;20203;-43
2022/09/05 12:40:50;;;;;;;3.57;2.50;;;;;;;;;;4904270;29;20236;-43
2022/09/05 12:43:18;;;;;;;2.97;2.23;;;;;;;;;;4902002;29;20179;-43
2022/09/05 12:45:57;;;;;;;5.30;2.50;;;;;;;;;;4898613;29;20252;-43
2022/09/05 12:48:25;;;;;;;4.10;2.40;;;;;;;;;;4901234;29;20176;-43
2022/09/05 12:50:54;;;;;;;2.60;2.00;;;;;;;;;;4900245;29;20174;-43
2022/09/05 12:53:23;;;;;;;5.53;2.30;;;;;;;;;;4901507;28;20176;-42
2022/09/05 12:55:58;;;;;;;3.87;2.20;;;;;;;;;;4897559;29;20894;-43
2022/09/05 12:58:28;;;;;;;5.87;2.20;;;;;;;;;;4901432;29;20609;-43
2022/09/05 13:01:19;;;;;;;3.50;2.07;;;;;;;;;;4902201;28;20220;-43
2022/09/05 13:04:17;;;;;;;5.00;2.27;;;;;;;;;;4899634;29;20202;-43
2022/09/05 13:06:49;;;;;;;3.60;2.50;;;;;;;;;;4900524;28;21032;-43
2022/09/05 13:09:27;;;;;;;4.70;2.23;;;;;;;;;;4901122;29;20215;-43
2022/09/05 13:12:08;;;;;;;3.53;2.50;;;;;;;;;;4898457;29;20184;-43
2022/09/05 13:14:42;;;;;;;6.50;2.50;;;;;;;;;;4899480;29;20520;-43
2022/09/05 13:17:12;;;;;;;3.50;2.63;;;;;;;;;;4901596;29;20261;-43
2022/09/05 13:19:59;;;;;;;3.87;2.47;;;;;;;;;;4901070;29;20825;-44
2022/09/05 13:22:25;;;;;;;4.00;2.20;;;;;;;;;;4899723;28;20723;-43
2022/09/05 13:25:03;;;;;;;4.73;2.20;;;;;;;;;;4901491;29;20218;-43
2022/09/05 13:27:33;;;;;;;3.53;2.17;;;;;;;;;;4902422;29;20168;-43
2022/09/05 13:30:06;;;;;;;3.50;1.73;;;;;;;;;;4898273;28;20268;-43
2022/09/05 13:32:42;;;;;;;4.23;2.20;;;;;;;;;;4898704;29;20417;-43
2022/09/05 13:35:20;;;;;;;5.23;2.30;;;;;;;;;;4929648;28;20183;-43
2022/09/05 13:37:57;;;;;;;4.40;2.27;;;;;;;;;;4904236;29;20655;-43
2022/09/05 13:40:31;;;;;;;4.43;2.33;;;;;;;;;;4901866;29;20230;-43
2022/09/05 13:42:57;;;;;;;5.07;1.90;;;;;;;;;;4899662;29;20507;-43
2022/09/05 13:45:28;;;;;;;4.43;2.10;;;;;;;;;;4900032;29;20183;-43
2022/09/05 13:47:57;;;;;;;2.67;1.90;;;;;;;;;;4901525;29;20176;-42
2022/09/05 13:50:32;;;;;;;2.90;2.17;;;;;;;;;;4898757;29;21064;-43
2022/09/05 13:53:06;;;;;;;3.57;2.20;;;;;;;;;;4900025;29;20292;-43
2022/09/05 13:55:57;;;;;;;3.93;2.20;;;;;;;;;;4900712;29;20345;-43
2022/09/05 13:58:26;;;;;;;3.43;2.13;;;;;;;;;;4897855;29;20190;-43
2022/09/05 14:00:55;;;;;;;4.60;2.50;;;;;;;;;;4898098;29;20203;-42
2022/09/05 14:03:21;;;;;;;5.17;2.23;;;;;;;;;;4901065;29;20713;-43
2022/09/05 14:06:06;;;;;;;10.67;2.60;;;;;;;;;;4901001;29;20177;-43
2022/09/05 14:08:39;;;;;;;3.30;2.10;;;;;;;;;;4897752;29;20189;-42
2022/09/05 14:11:05;;;;;;;4.70;2.17;;;;;;;;;;4900580;29;20721;-42
2022/09/05 14:14:03;;;;;;;5.73;2.27;;;;;;;;;;4902382;29;20186;-42
2022/09/05 14:16:33;;;;;;;4.63;2.00;;;;;;;;;;4901655;29;20796;-42
2022/09/05 14:21:45;;;;;;;3.70;2.30;;;;;;;;;;4900597;29;20233;-41
2022/09/05 14:24:17;;;;;;;4.83;2.20;;;;;;;;;;4900461;29;20197;-41
2022/09/05 14:26:46;;;;;;;2.83;1.97;;;;;;;;;;4899686;29;20278;-41
2022/09/05 14:29:18;;;;;;;4.13;2.07;;;;;;;;;;4892814;29;20752;-41
2022/09/05 14:31:55;;;;;;;2.43;1.90;;;;;;;;;;4892289;29;20406;-42
2022/09/05 14:34:33;;;;;;;3.13;1.90;;;;;;;;;;4888374;29;20187;-42
2022/09/05 14:37:35;;;;;;;4.73;2.13;;;;;;;;;;4890157;29;20188;-41
2022/09/05 14:40:07;;;;;;;4.37;2.00;;;;;;;;;;4922123;28;20302;-42
2022/09/05 14:42:42;;;;;;;4.93;2.10;;;;;;;;;;4897821;28;20460;-40
2022/09/05 14:45:08;;;;;;;3.70;2.00;;;;;;;;;;4884589;29;20361;-42
2022/09/05 14:47:37;;;;;;;4.00;1.80;;;;;;;;;;4886938;29;20562;-42
2022/09/05 14:50:17;;;;;;;3.80;1.83;;;;;;;;;;4889601;29;20300;-42
2022/09/05 14:53:03;;;;;;;3.40;2.30;;;;;;;;;;4886662;29;20184;-42
2022/09/05 14:55:29;;;;;;;5.27;2.00;;;;;;;;;;4895681;29;20345;-42
2022/09/05 14:57:56;;;;;;;3.40;2.03;;;;;;;;;;4889833;29;20669;-42
2022/09/05 15:00:22;;;;;;;6.40;2.33;;;;;;;;;;4898138;29;20262;-43
2022/09/05 15:02:53;;;;;;;5.53;2.30;;;;;;;;;;4897864;29;20186;-43
2022/09/05 15:05:34;;;;;;;4.77;1.90;;;;;;;;;;4896848;29;20688;-43
2022/09/05 15:08:05;;;;;;;2.47;2.10;;;;;;;;;;4893746;29;20219;-43
2022/09/05 15:10:31;;;;;;;6.60;2.27;;;;;;;;;;4897145;29;20187;-41
2022/09/05 15:12:59;;;;;;;3.37;2.00;;;;;;;;;;4895922;29;20535;-42
2022/09/05 15:15:27;;;;;;;2.53;2.30;;;;;;;;;;4895624;29;20192;-42
2022/09/05 15:18:02;;;;;;;2.50;1.90;;;;;;;;;;4892941;29;20959;-42
2022/09/05 15:20:28;;;;;;;4.50;1.80;;;;;;;;;;4895331;29;20629;-42
2022/09/05 15:22:54;;;;;;;3.47;1.80;;;;;;;;;;4889870;29;20500;-42
2022/09/05 15:25:22;;;;;;;2.63;1.70;;;;;;;;;;4879603;29;20196;-43